Time;durP1;ratioP1;P1;durP2;ratioP2;P2;SDS_P1;SDS_P2;PMS_P1;PMS_P2;Temp;Humidity;BMP_temperature;BMP_pressure;BME280_temperature;BME280_humidity;BME280_pressure;Samples;Min_cycle;Max_cycle;Signal;HPM_P1;HPM_P2
2022/07/01 00:01:32;;;;;;;2.60;2.33;;;21.70;56.90;;;;;;5036960;28;20052;-78
2022/07/01 00:03:58;;;;;;;2.65;2.25;;;21.70;57.00;;;;;;5052506;28;20604;-78
2022/07/01 00:06:24;;;;;;;2.65;2.28;;;21.70;57.00;;;;;;5070989;28;20061;-79
2022/07/01 00:08:50;;;;;;;2.65;2.30;;;21.60;57.00;;;;;;5073638;28;20131;-78
2022/07/01 00:11:16;;;;;;;2.95;2.65;;;21.60;57.10;;;;;;5055766;28;20107;-77
2022/07/01 00:13:42;;;;;;;2.53;2.33;;;21.60;57.10;;;;;;5057673;28;20037;-79
2022/07/01 00:16:07;;;;;;;3.60;2.65;;;21.60;57.20;;;;;;5057583;28;20388;-77
2022/07/01 00:18:33;;;;;;;2.40;2.20;;;21.50;57.10;;;;;;5063525;28;20037;-78
2022/07/01 00:21:00;;;;;;;3.30;2.67;;;21.50;57.20;;;;;;5072316;28;20036;-79
2022/07/01 00:23:27;;;;;;;2.40;2.20;;;21.50;57.20;;;;;;5063386;28;20124;-79
2022/07/01 00:25:53;;;;;;;3.25;2.47;;;21.50;57.30;;;;;;5072111;28;20052;-79
2022/07/01 00:28:18;;;;;;;2.90;2.40;;;21.40;57.30;;;;;;5075572;28;20603;-78
2022/07/01 00:30:44;;;;;;;3.10;2.72;;;21.40;57.40;;;;;;5075915;28;20520;-79
2022/07/01 00:33:10;;;;;;;3.00;2.63;;;21.40;57.30;;;;;;5055764;28;20073;-78
2022/07/01 00:35:35;;;;;;;3.17;2.70;;;21.40;57.40;;;;;;5038295;28;20127;-79
2022/07/01 00:38:01;;;;;;;3.55;2.60;;;21.30;57.30;;;;;;5065358;28;20477;-78
2022/07/01 00:40:27;;;;;;;3.70;2.65;;;21.30;57.40;;;;;;5082538;28;20052;-79
2022/07/01 00:42:53;;;;;;;3.33;3.00;;;21.30;57.40;;;;;;5056672;28;20040;-78
2022/07/01 00:45:19;;;;;;;3.63;2.97;;;21.30;57.50;;;;;;5073505;28;20028;-77
2022/07/01 00:47:45;;;;;;;3.50;2.80;;;21.30;57.50;;;;;;5072775;28;20032;-79
2022/07/01 00:50:13;;;;;;;3.65;2.95;;;21.20;57.50;;;;;;5072533;28;20036;-77
2022/07/01 00:52:40;;;;;;;3.47;3.05;;;21.20;57.60;;;;;;5069639;28;20527;-77
2022/07/01 00:55:09;;;;;;;3.60;3.20;;;21.20;57.60;;;;;;5074326;28;20028;-80
2022/07/01 00:57:39;;;;;;;3.05;2.75;;;21.20;57.70;;;;;;5073294;28;20059;-79
2022/07/01 01:00:26;;;;;;;3.40;2.97;;;21.20;57.70;;;;;;5071817;28;20025;-78
2022/07/01 01:02:52;;;;;;;4.30;2.78;;;21.10;57.70;;;;;;5066067;28;20021;-79
2022/07/01 01:05:20;;;;;;;3.38;2.72;;;21.10;57.70;;;;;;5057096;28;20045;-77
2022/07/01 01:07:47;;;;;;;4.10;3.20;;;21.10;58.40;;;;;;5053352;28;20032;-77
2022/07/01 01:10:14;;;;;;;4.03;3.45;;;21.10;57.80;;;;;;5076725;28;20086;-78
2022/07/01 01:12:40;;;;;;;4.57;3.70;;;21.10;57.90;;;;;;5071040;28;20108;-77
2022/07/01 01:15:07;;;;;;;4.90;4.03;;;21.00;57.80;;;;;;5057657;28;20115;-78
2022/07/01 01:17:33;;;;;;;4.40;3.47;;;21.00;57.90;;;;;;5054271;28;20029;-78
2022/07/01 01:19:58;;;;;;;5.18;4.30;;;21.00;58.00;;;;;;5052579;28;20035;-78
2022/07/01 01:22:24;;;;;;;5.05;4.30;;;21.00;57.90;;;;;;5071829;28;20035;-78
2022/07/01 01:24:50;;;;;;;5.72;4.68;;;21.00;58.00;;;;;;5072826;28;20063;-81
2022/07/01 01:27:16;;;;;;;6.68;4.90;;;20.90;58.00;;;;;;5048280;28;20472;-77
2022/07/01 01:29:43;;;;;;;6.00;5.10;;;20.90;58.00;;;;;;5054699;28;20123;-78
2022/07/01 01:32:09;;;;;;;6.28;5.18;;;20.90;58.00;;;;;;5056060;28;20075;-79
2022/07/01 01:34:37;;;;;;;6.30;5.40;;;20.90;58.10;;;;;;5053615;28;20033;-78
2022/07/01 01:37:04;;;;;;;7.13;5.55;;;20.90;58.10;;;;;;5052911;28;20491;-79
2022/07/01 01:39:30;;;;;;;6.90;6.10;;;20.80;58.10;;;;;;5039676;28;20025;-78
2022/07/01 01:41:56;;;;;;;7.28;6.25;;;20.80;58.10;;;;;;5070392;28;20025;-81
2022/07/01 01:44:21;;;;;;;6.82;6.03;;;20.80;58.10;;;;;;5054305;28;20089;-77
2022/07/01 01:46:47;;;;;;;7.68;6.40;;;20.80;58.10;;;;;;5070759;28;20036;-79
2022/07/01 01:49:13;;;;;;;7.22;6.43;;;20.80;58.20;;;;;;5051535;28;20083;-78
2022/07/01 01:51:39;;;;;;;7.88;7.07;;;20.80;58.20;;;;;;5054333;28;20036;-77
2022/07/01 01:54:05;;;;;;;7.90;7.05;;;20.70;58.20;;;;;;5055991;28;20020;-79
2022/07/01 01:56:31;;;;;;;8.77;7.88;;;20.70;58.20;;;;;;5056491;28;20039;-78
2022/07/01 01:58:58;;;;;;;8.90;7.50;;;20.70;58.30;;;;;;5073948;28;20036;-78
2022/07/01 02:01:24;;;;;;;8.27;7.32;;;20.70;58.30;;;;;;5055967;28;20033;-78
2022/07/01 02:03:51;;;;;;;8.02;7.22;;;20.70;58.40;;;;;;5053859;28;20372;-79
2022/07/01 02:06:18;;;;;;;8.40;7.55;;;20.70;58.40;;;;;;5068740;28;20033;-77
2022/07/01 02:08:44;;;;;;;9.93;7.47;;;20.60;58.40;;;;;;5053371;28;20050;-78
2022/07/01 02:11:10;;;;;;;8.45;7.53;;;20.60;58.40;;;;;;5076487;28;20040;-77
2022/07/01 02:13:37;;;;;;;9.20;8.10;;;20.60;58.40;;;;;;5069652;28;20411;-79
2022/07/01 02:16:03;;;;;;;8.77;7.82;;;20.60;58.50;;;;;;5071034;28;20031;-78
2022/07/01 02:18:30;;;;;;;8.98;7.93;;;20.60;58.50;;;;;;5070576;28;20499;-78
2022/07/01 02:20:56;;;;;;;8.80;7.85;;;20.50;58.40;;;;;;5053633;28;20032;-77
2022/07/01 02:23:22;;;;;;;9.10;8.20;;;20.50;58.50;;;;;;5055392;28;20078;-78
2022/07/01 02:25:48;;;;;;;9.60;8.02;;;20.50;58.50;;;;;;5017908;28;20053;-79
2022/07/01 02:28:13;;;;;;;10.35;9.25;;;20.50;58.60;;;;;;5069219;28;20148;-78
2022/07/01 02:30:40;;;;;;;9.40;8.40;;;20.50;58.60;;;;;;5079282;28;20387;-78
2022/07/01 02:33:06;;;;;;;9.85;8.68;;;20.40;58.60;;;;;;5055800;28;20115;-80
2022/07/01 02:35:34;;;;;;;9.55;8.55;;;20.40;58.70;;;;;;5066767;28;20024;-77
2022/07/01 02:38:00;;;;;;;9.77;8.82;;;20.40;58.70;;;;;;5052968;28;20048;-78
2022/07/01 02:40:26;;;;;;;9.07;8.18;;;20.40;58.70;;;;;;5070028;28;20082;-78
2022/07/01 02:42:51;;;;;;;9.88;8.88;;;20.40;58.70;;;;;;5038662;28;20032;-77
2022/07/01 02:45:17;;;;;;;10.07;8.70;;;20.40;58.70;;;;;;5050605;28;20032;-77
2022/07/01 02:47:44;;;;;;;10.35;9.25;;;20.40;58.70;;;;;;5086055;28;20032;-77
2022/07/01 02:50:11;;;;;;;10.18;8.95;;;20.30;58.70;;;;;;5067099;28;20053;-78
2022/07/01 02:52:39;;;;;;;9.30;8.35;;;20.30;58.70;;;;;;5068737;28;20051;-80
2022/07/01 02:55:07;;;;;;;9.77;8.65;;;20.30;58.80;;;;;;5063279;28;20028;-78
2022/07/01 02:57:33;;;;;;;9.25;8.35;;;20.30;58.80;;;;;;5053715;28;20040;-77
2022/07/01 02:59:59;;;;;;;9.95;8.95;;;20.30;58.80;;;;;;5066154;28;20103;-78
2022/07/01 03:02:25;;;;;;;9.27;8.30;;;20.30;58.90;;;;;;5052507;28;20024;-79
2022/07/01 03:04:52;;;;;;;9.52;8.52;;;20.20;58.80;;;;;;5072188;28;20043;-78
2022/07/01 03:07:19;;;;;;;9.40;8.50;;;20.20;58.80;;;;;;5055189;28;20060;-78
2022/07/01 03:09:45;;;;;;;8.55;7.65;;;20.20;58.80;;;;;;5072482;28;20460;-78
2022/07/01 03:12:24;;;;;;;8.40;7.55;;;20.20;58.90;;;;;;5070034;28;20078;-77
2022/07/01 03:14:57;;;;;;;9.40;8.32;;;20.20;58.90;;;;;;5071312;28;20063;-78
2022/07/01 03:17:28;;;;;;;9.27;7.97;;;20.20;59.00;;;;;;5070355;28;20028;-77
2022/07/01 03:19:55;;;;;;;8.82;7.93;;;20.10;58.90;;;;;;5069654;28;20024;-79
2022/07/01 03:22:22;;;;;;;9.90;8.57;;;20.10;58.90;;;;;;5069527;28;20030;-77
2022/07/01 03:24:49;;;;;;;9.88;8.88;;;20.10;58.90;;;;;;5069424;28;20052;-77
2022/07/01 03:27:15;;;;;;;8.63;7.72;;;20.10;59.00;;;;;;5070982;28;20037;-79
2022/07/01 03:29:41;;;;;;;8.63;7.72;;;20.10;59.00;;;;;;5068341;28;20028;-78
2022/07/01 03:32:09;;;;;;;9.10;8.20;;;20.10;59.00;;;;;;5074781;28;20063;-78
2022/07/01 03:34:39;;;;;;;10.27;8.52;;;20.10;59.00;;;;;;5070579;28;20036;-78
2022/07/01 03:37:07;;;;;;;8.63;7.70;;;20.00;59.00;;;;;;5073573;28;20044;-79
2022/07/01 03:39:34;;;;;;;9.25;8.35;;;20.00;59.00;;;;;;5069986;28;20511;-78
2022/07/01 03:42:00;;;;;;;9.25;8.35;;;20.00;59.00;;;;;;5068427;28;20025;-80
2022/07/01 03:44:27;;;;;;;8.85;7.72;;;20.00;59.10;;;;;;5077090;28;20108;-77
2022/07/01 03:46:53;;;;;;;8.70;7.80;;;20.00;59.10;;;;;;5073161;28;20024;-77
2022/07/01 03:49:19;;;;;;;9.52;8.43;;;19.90;59.00;;;;;;5074267;28;20033;-77
2022/07/01 03:51:44;;;;;;;9.50;8.50;;;19.90;59.10;;;;;;5056301;28;20583;-78
2022/07/01 03:56:57;;;;;;;9.30;8.10;;;19.90;59.10;;;;;;5056542;28;20029;-78
2022/07/01 03:59:22;;;;;;;9.35;8.35;;;19.90;59.10;;;;;;5074077;28;20065;-77
2022/07/01 04:01:48;;;;;;;9.75;8.75;;;19.90;59.20;;;;;;5075742;28;20032;-77
2022/07/01 04:04:14;;;;;;;8.85;7.78;;;19.80;59.20;;;;;;5070764;28;20135;-77
2022/07/01 04:06:40;;;;;;;9.82;8.82;;;19.80;59.20;;;;;;5072882;28;20110;-79
2022/07/01 04:09:06;;;;;;;8.95;8.05;;;19.80;59.20;;;;;;5071054;28;20579;-81
2022/07/01 04:11:32;;;;;;;9.13;8.15;;;19.80;59.20;;;;;;5071507;28;20029;-77
2022/07/01 04:13:58;;;;;;;9.90;8.50;;;19.80;59.30;;;;;;5078639;28;20047;-78
2022/07/01 04:16:25;;;;;;;9.27;8.27;;;19.80;59.30;;;;;;5068289;28;20025;-79
2022/07/01 04:18:52;;;;;;;10.02;8.50;;;19.70;59.30;;;;;;5052827;28;20052;-77
2022/07/01 04:24:02;;;;;;;9.80;7.80;;;19.70;59.30;;;;;;5073160;28;20093;-78
2022/07/01 04:26:27;;;;;;;8.52;7.63;;;19.70;59.30;;;;;;5053413;28;20136;-79
2022/07/01 04:28:54;;;;;;;9.23;8.32;;;19.70;59.40;;;;;;5076902;28;20051;-78
2022/07/01 04:31:20;;;;;;;9.23;8.23;;;19.70;59.40;;;;;;5072481;28;20083;-77
2022/07/01 04:33:50;;;;;;;8.98;8.00;;;19.70;59.50;;;;;;5073230;28;20663;-77
2022/07/01 04:36:17;;;;;;;9.27;8.18;;;19.60;59.50;;;;;;5073138;28;20035;-78
2022/07/01 04:38:43;;;;;;;8.85;7.88;;;19.60;59.50;;;;;;5063910;28;20044;-78
2022/07/01 04:43:52;;;;;;;8.97;7.90;;;19.60;59.50;;;;;;5068764;28;20059;-78
2022/07/01 04:46:18;;;;;;;8.75;7.75;;;19.60;59.50;;;;;;5072123;28;20106;-81
2022/07/01 04:48:44;;;;;;;9.35;8.35;;;19.60;59.50;;;;;;5039529;28;20032;-80
2022/07/01 04:51:10;;;;;;;9.50;8.00;;;19.60;59.60;;;;;;5039251;28;20033;-78
2022/07/01 04:53:35;;;;;;;9.38;8.38;;;19.60;59.60;;;;;;5067540;28;20040;-78
2022/07/01 04:56:01;;;;;;;9.18;7.15;;;19.60;60.30;;;;;;5056408;28;20037;-77
2022/07/01 04:58:27;;;;;;;9.80;8.30;;;19.60;59.70;;;;;;5079689;28;20024;-77
2022/07/01 05:00:53;;;;;;;8.32;7.28;;;19.60;59.70;;;;;;5067100;28;20032;-77
2022/07/01 05:03:19;;;;;;;8.43;7.53;;;19.50;59.70;;;;;;5076427;28;20024;-78
2022/07/01 05:05:44;;;;;;;9.05;7.45;;;19.50;59.70;;;;;;5081753;28;20037;-78
2022/07/01 05:08:10;;;;;;;9.30;8.15;;;19.50;59.70;;;;;;5053732;28;20056;-82
2022/07/01 05:10:36;;;;;;;9.13;8.20;;;19.50;59.80;;;;;;5061575;28;20036;-78
2022/07/01 05:13:02;;;;;;;8.45;7.55;;;19.60;59.80;;;;;;5059213;28;20024;-78
2022/07/01 05:15:28;;;;;;;8.88;7.97;;;19.50;59.80;;;;;;5075226;28;20043;-76
2022/07/01 05:23:23;;;;;;;9.47;7.50;;;19.50;59.80;;;;;;5079631;28;20040;-77
2022/07/01 05:25:48;;;;;;;8.48;7.20;;;19.50;59.80;;;;;;5072869;28;20179;-76
2022/07/01 05:28:14;;;;;;;8.82;6.60;;;19.50;59.80;;;;;;5056467;28;20052;-77
2022/07/01 05:30:40;;;;;;;9.10;7.13;;;19.50;59.90;;;;;;5079587;28;20025;-78
2022/07/01 05:33:06;;;;;;;8.60;7.38;;;19.50;59.90;;;;;;5071405;28;20029;-80
2022/07/01 05:35:31;;;;;;;7.95;6.82;;;19.50;59.90;;;;;;5071369;28;20048;-78
2022/07/01 05:37:58;;;;;;;8.73;7.45;;;19.50;59.90;;;;;;5076556;28;20032;-79
2022/07/01 05:40:25;;;;;;;8.63;7.70;;;19.50;60.00;;;;;;5061075;28;20031;-80
2022/07/01 05:42:51;;;;;;;8.15;7.03;;;19.40;59.90;;;;;;5072854;28;20478;-79
2022/07/01 05:45:18;;;;;;;9.00;7.32;;;19.40;60.00;;;;;;5044512;28;20491;-78
2022/07/01 05:47:44;;;;;;;8.93;7.68;;;19.40;60.00;;;;;;5071361;28;20039;-78
2022/07/01 05:50:10;;;;;;;8.88;7.28;;;19.40;60.00;;;;;;5070291;28;20035;-78
2022/07/01 05:52:35;;;;;;;8.77;7.22;;;19.40;60.00;;;;;;5036958;28;20020;-78
2022/07/01 05:55:01;;;;;;;8.43;7.22;;;19.40;60.00;;;;;;5070773;28;20028;-79
2022/07/01 05:57:27;;;;;;;8.40;7.35;;;19.40;60.00;;;;;;5085174;28;20368;-77
2022/07/01 05:59:53;;;;;;;8.68;7.18;;;19.40;60.00;;;;;;5070460;28;20603;-77
2022/07/01 06:02:19;;;;;;;9.85;7.47;;;19.40;60.00;;;;;;5070312;28;20067;-76
2022/07/01 06:04:45;;;;;;;8.73;6.97;;;19.40;60.10;;;;;;5078292;28;20044;-81
2022/07/01 06:07:10;;;;;;;8.48;7.13;;;19.40;60.10;;;;;;5053720;28;20389;-78
2022/07/01 06:09:37;;;;;;;7.68;6.50;;;19.40;60.00;;;;;;5053676;28;20075;-80
2022/07/01 06:12:04;;;;;;;9.32;7.07;;;19.40;60.10;;;;;;5070114;28;20021;-79
2022/07/01 06:14:29;;;;;;;8.93;7.25;;;19.40;60.10;;;;;;5071458;28;20078;-78
2022/07/01 06:16:55;;;;;;;7.80;6.65;;;19.40;60.10;;;;;;5070465;28;20029;-76
2022/07/01 06:19:21;;;;;;;8.68;6.72;;;19.40;60.10;;;;;;5071502;28;20473;-77
2022/07/01 06:21:47;;;;;;;9.40;6.90;;;19.40;60.10;;;;;;5070991;28;20024;-81
2022/07/01 06:24:13;;;;;;;8.93;7.00;;;19.40;60.10;;;;;;5053903;28;20037;-79
2022/07/01 06:26:39;;;;;;;7.80;6.65;;;19.40;60.10;;;;;;5071233;28;20029;-77
2022/07/01 06:29:05;;;;;;;7.95;6.72;;;19.40;60.10;;;;;;5072296;28;20144;-77
2022/07/01 06:31:33;;;;;;;8.90;6.72;;;19.40;60.10;;;;;;5070150;28;20437;-76
2022/07/01 06:34:00;;;;;;;9.13;6.70;;;19.40;60.10;;;;;;5070415;28;20162;-77
2022/07/01 06:36:26;;;;;;;8.68;7.07;;;19.40;60.10;;;;;;5038023;28;20454;-77
2022/07/01 06:38:52;;;;;;;9.25;6.68;;;19.40;60.10;;;;;;5063584;28;20457;-79
2022/07/01 06:41:27;;;;;;;8.25;6.93;;;19.40;60.90;;;;;;5052010;28;20029;-80
2022/07/01 06:43:53;;;;;;;9.05;6.72;;;19.40;60.20;;;;;;5059042;28;20050;-79
2022/07/01 06:46:20;;;;;;;8.70;6.78;;;19.50;60.20;;;;;;5057361;28;20079;-79
2022/07/01 06:48:46;;;;;;;8.25;7.03;;;19.40;60.20;;;;;;5086424;28;20035;-80
2022/07/01 06:51:12;;;;;;;8.30;6.97;;;19.50;60.30;;;;;;5054582;28;20081;-79
2022/07/01 06:53:38;;;;;;;8.00;6.50;;;19.40;60.20;;;;;;5044192;28;20445;-79
2022/07/01 06:56:04;;;;;;;8.50;6.90;;;19.40;60.30;;;;;;5070755;28;20082;-80
2022/07/01 06:58:30;;;;;;;8.48;6.90;;;19.40;60.20;;;;;;5058719;28;20037;-79
2022/07/01 07:00:55;;;;;;;11.70;6.70;;;19.50;60.30;;;;;;5048165;28;20032;-82
2022/07/01 07:03:21;;;;;;;9.30;6.82;;;19.40;60.30;;;;;;5068181;28;20393;-78
2022/07/01 07:05:47;;;;;;;8.60;6.88;;;19.40;60.30;;;;;;5071800;28;20041;-80
2022/07/01 07:08:13;;;;;;;7.85;6.68;;;19.50;60.40;;;;;;5064960;28;20062;-80
2022/07/01 07:10:38;;;;;;;8.15;6.45;;;19.50;60.40;;;;;;5069173;28;20032;-80
2022/07/01 07:13:04;;;;;;;7.72;5.82;;;19.50;60.40;;;;;;5051156;28;20114;-81
2022/07/01 07:15:30;;;;;;;8.50;6.38;;;19.50;60.40;;;;;;5048519;28;20049;-78
2022/07/01 07:17:57;;;;;;;9.48;7.03;;;19.50;60.30;;;;;;5050365;28;20447;-81
2022/07/01 07:20:26;;;;;;;7.85;6.60;;;19.50;60.40;;;;;;5045631;28;20089;-78
2022/07/01 07:22:53;;;;;;;7.93;6.38;;;19.50;60.40;;;;;;5051128;28;20093;-78
2022/07/01 07:25:18;;;;;;;8.25;6.68;;;19.50;60.40;;;;;;5065794;28;20051;-81
2022/07/01 07:27:46;;;;;;;9.30;6.75;;;19.50;60.30;;;;;;5042743;28;20102;-79
2022/07/01 07:30:13;;;;;;;8.43;6.13;;;19.50;60.40;;;;;;5067500;28;20044;-82
2022/07/01 07:32:39;;;;;;;9.70;7.10;;;19.60;60.40;;;;;;5051044;28;20063;-79
2022/07/01 07:35:06;;;;;;;8.02;6.22;;;19.60;60.40;;;;;;5068357;28;20017;-79
2022/07/01 07:37:32;;;;;;;8.13;6.38;;;19.60;60.30;;;;;;5049975;28;20040;-79
2022/07/01 07:39:59;;;;;;;8.43;6.82;;;19.70;60.30;;;;;;5050666;28;20032;-79
2022/07/01 07:42:25;;;;;;;7.95;6.20;;;19.70;60.30;;;;;;5067293;28;20112;-79
2022/07/01 07:44:51;;;;;;;8.52;6.68;;;19.70;60.20;;;;;;5065692;28;20115;-80
2022/07/01 07:47:16;;;;;;;7.60;5.97;;;19.70;60.20;;;;;;5068002;28;20056;-80
2022/07/01 07:49:42;;;;;;;8.95;6.30;;;19.80;59.70;;;;;;5062198;28;20108;-77
2022/07/01 07:52:08;;;;;;;8.52;6.05;;;19.80;60.10;;;;;;5065876;28;20020;-80
2022/07/01 07:54:34;;;;;;;8.02;6.32;;;19.90;60.10;;;;;;5050910;28;20060;-79
2022/07/01 07:57:00;;;;;;;8.32;5.75;;;19.90;60.10;;;;;;5034650;28;20119;-79
2022/07/01 07:59:26;;;;;;;8.07;6.18;;;19.90;60.00;;;;;;5047898;28;20120;-84
2022/07/01 08:01:52;;;;;;;7.43;5.75;;;20.00;60.00;;;;;;5045361;28;20082;-79
2022/07/01 08:04:17;;;;;;;8.30;6.20;;;20.00;60.00;;;;;;5049008;28;20048;-79
2022/07/01 08:06:43;;;;;;;7.70;6.38;;;20.10;60.00;;;;;;5066603;28;20032;-79
2022/07/01 08:09:09;;;;;;;8.70;6.50;;;20.10;59.90;;;;;;5034342;28;20059;-79
2022/07/01 08:11:35;;;;;;;8.00;5.85;;;20.10;59.90;;;;;;5051386;28;20040;-78
2022/07/01 08:14:00;;;;;;;7.22;5.75;;;20.20;59.90;;;;;;5017076;28;20041;-81
2022/07/01 08:16:26;;;;;;;8.48;6.32;;;20.20;60.00;;;;;;5051743;28;20692;-79
2022/07/01 08:18:52;;;;;;;8.68;6.40;;;20.30;59.80;;;;;;5034649;28;20036;-81
2022/07/01 08:21:18;;;;;;;7.07;5.88;;;20.30;59.80;;;;;;5067134;28;20034;-80
2022/07/01 08:23:43;;;;;;;6.47;4.95;;;20.30;59.80;;;;;;5051637;28;20032;-81
2022/07/01 08:26:13;;;;;;;6.40;5.00;;;20.40;59.70;;;;;;5066737;28;20412;-79
2022/07/01 08:28:39;;;;;;;7.15;5.18;;;20.40;59.70;;;;;;5079860;28;20049;-82
2022/07/01 08:31:04;;;;;;;7.28;5.63;;;20.50;59.60;;;;;;5072879;28;20024;-80
2022/07/01 08:33:31;;;;;;;6.55;5.18;;;20.50;59.60;;;;;;5055122;28;20082;-79
2022/07/01 08:35:57;;;;;;;6.57;5.30;;;20.60;59.60;;;;;;5071547;28;20021;-80
2022/07/01 08:38:22;;;;;;;6.30;4.50;;;20.60;59.50;;;;;;5036976;28;20550;-79
2022/07/01 08:40:49;;;;;;;6.80;4.97;;;20.60;59.30;;;;;;5071945;28;20024;-80
2022/07/01 08:43:15;;;;;;;6.38;4.85;;;20.70;59.30;;;;;;5036481;28;20670;-79
2022/07/01 08:45:42;;;;;;;5.75;4.45;;;20.80;59.30;;;;;;5070753;28;20040;-79
2022/07/01 08:48:07;;;;;;;6.10;4.63;;;20.90;59.20;;;;;;5052325;28;20473;-83
2022/07/01 08:50:38;;;;;;;6.65;4.65;;;21.00;59.20;;;;;;5068528;28;20035;-81
2022/07/01 08:53:05;;;;;;;5.63;3.85;;;21.00;59.10;;;;;;5070488;28;20028;-81
2022/07/01 08:55:32;;;;;;;6.07;4.40;;;21.10;59.10;;;;;;5053947;28;20037;-83
2022/07/01 08:57:58;;;;;;;5.15;3.65;;;21.10;59.00;;;;;;5070420;28;20032;-80
2022/07/01 09:00:31;;;;;;;4.55;3.53;;;21.20;59.00;;;;;;5054942;28;20112;-84
2022/07/01 09:02:59;;;;;;;5.82;3.58;;;21.30;59.10;;;;;;5070748;28;20048;-81
2022/07/01 09:05:28;;;;;;;5.78;3.50;;;21.40;58.90;;;;;;5084076;28;20076;-85
2022/07/01 09:08:05;;;;;;;5.28;2.97;;;21.40;59.00;;;;;;5054717;28;20485;-80
2022/07/01 09:10:34;;;;;;;3.30;2.08;;;21.50;59.00;;;;;;5050768;28;20112;-80
2022/07/01 13:36:15;;;;;;;1.52;1.30;;;22.00;55.40;;;;;;4615075;27;15106384;-87
2022/07/01 13:38:48;;;;;;;2.22;1.20;;;24.10;50.80;;;;;;5130128;27;20033;-89
2022/07/01 13:41:37;;;;;;;1.75;1.15;;;24.30;50.70;;;;;;5136052;27;20072;-89
2022/07/01 13:44:05;;;;;;;1.55;1.00;;;24.40;50.80;;;;;;5107434;27;20083;-86
2022/07/01 13:46:34;;;;;;;2.05;1.15;;;24.50;50.80;;;;;;5112968;27;20024;-87
2022/07/01 13:49:05;;;;;;;;;;;24.50;50.80;;;;;;5114121;27;20027;-85
2022/07/01 13:51:33;;;;;;;1.85;1.05;;;24.60;51.10;;;;;;5111855;28;19914;-86
2022/07/01 13:54:00;;;;;;;2.13;1.00;;;24.60;50.90;;;;;;5123531;27;20034;-87
2022/07/01 13:56:26;;;;;;;0.82;0.70;;;24.60;51.00;;;;;;5114641;27;20031;-86
2022/07/01 13:58:53;;;;;;;1.50;0.98;;;24.70;51.00;;;;;;5115865;27;20416;-86
2022/07/01 14:01:23;;;;;;;1.75;0.70;;;24.70;51.00;;;;;;5127079;27;20039;-85
2022/07/01 14:04:18;;;;;;;2.55;0.90;;;24.80;51.80;;;;;;5127558;27;20031;-96
2022/07/01 14:06:57;;;;;;;0.90;0.80;;;24.80;51.80;;;;;;5109084;27;20055;-87
2022/07/01 14:09:25;;;;;;;2.15;0.80;;;24.90;50.70;;;;;;5108469;27;20063;-91
2022/07/01 14:12:00;;;;;;;1.38;0.60;;;24.90;50.10;;;;;;5113128;27;20065;-90
2022/07/01 14:14:31;;;;;;;2.10;0.85;;;24.90;49.90;;;;;;5110337;27;20042;-91
2022/07/01 14:16:57;;;;;;;0.85;0.77;;;24.90;49.80;;;;;;5105058;27;20738;-89
2022/07/01 14:19:23;;;;;;;0.75;0.60;;;24.90;49.80;;;;;;5114846;27;20049;-90
2022/07/01 14:21:59;;;;;;;1.92;0.80;;;25.00;49.70;;;;;;5120956;28;20078;-89
2022/07/01 14:24:33;;;;;;;0.60;0.60;;;25.00;49.80;;;;;;5130271;27;20513;-92
2022/07/01 14:26:59;;;;;;;1.27;0.80;;;25.00;49.70;;;;;;5116602;27;20095;-89
2022/07/01 14:29:28;;;;;;;0.60;0.60;;;25.10;49.80;;;;;;5114722;27;20062;-90
2022/07/01 14:31:59;;;;;;;0.60;0.60;;;25.10;49.80;;;;;;5110459;28;20390;-91
2022/07/01 14:34:30;;;;;;;0.90;0.63;;;25.10;49.80;;;;;;5122462;27;20619;-90
2022/07/01 14:37:06;;;;;;;0.82;0.73;;;25.10;49.80;;;;;;5139606;27;20035;-91
2022/07/01 14:39:37;;;;;;;1.13;0.70;;;25.10;49.80;;;;;;5129095;27;20049;-88
2022/07/01 14:42:16;;;;;;;1.15;0.65;;;25.10;49.80;;;;;;5131762;27;20541;-88
2022/07/01 14:44:45;;;;;;;0.65;0.60;;;25.20;49.80;;;;;;5111514;28;20101;-86
2022/07/01 14:47:11;;;;;;;2.08;0.70;;;25.20;49.80;;;;;;5095919;28;20048;-87
2022/07/01 14:49:36;;;;;;;1.33;0.90;;;25.30;49.40;;;;;;5082490;27;20023;-87
2022/07/01 14:52:05;;;;;;;1.02;0.55;;;25.20;48.90;;;;;;5096606;28;20402;-83
2022/07/01 14:54:33;;;;;;;0.65;0.65;;;25.30;48.40;;;;;;5131814;27;20043;-86
2022/07/01 14:56:59;;;;;;;2.83;1.00;;;25.20;48.20;;;;;;5099041;27;20034;-84
2022/07/01 14:59:26;;;;;;;0.55;0.50;;;25.20;48.00;;;;;;5098812;27;20047;-86
2022/07/01 15:01:57;;;;;;;1.77;0.95;;;25.20;47.90;;;;;;5111468;27;20076;-87
2022/07/01 15:04:23;;;;;;;1.73;0.82;;;25.20;47.80;;;;;;5096833;28;20130;-83
2022/07/01 15:06:49;;;;;;;3.58;1.27;;;25.20;47.80;;;;;;5077116;27;20111;-84
2022/07/01 15:09:23;;;;;;;2.55;1.20;;;25.20;47.80;;;;;;5106343;27;20028;-90
2022/07/01 15:11:50;;;;;;;2.97;1.50;;;25.20;47.90;;;;;;5110404;27;20478;-85
2022/07/01 15:14:16;;;;;;;2.78;1.40;;;25.30;48.10;;;;;;5110699;27;20020;-85
2022/07/01 15:16:41;;;;;;;2.03;1.30;;;25.30;48.20;;;;;;5093987;27;20405;-83
2022/07/01 15:19:07;;;;;;;2.33;1.23;;;25.30;48.30;;;;;;5118345;27;20023;-83
2022/07/01 15:21:33;;;;;;;2.55;1.30;;;25.30;48.40;;;;;;5107630;27;20513;-83
2022/07/01 15:23:59;;;;;;;1.30;1.10;;;25.30;48.50;;;;;;5091436;27;20367;-87
2022/07/01 15:26:25;;;;;;;1.63;1.15;;;25.30;48.50;;;;;;5099755;27;20094;-91
2022/07/01 15:28:51;;;;;;;3.10;1.23;;;25.30;48.60;;;;;;5108959;27;20120;-89
2022/07/01 15:31:17;;;;;;;1.08;0.93;;;25.40;48.80;;;;;;5101040;27;20034;-89
2022/07/01 15:33:54;;;;;;;1.83;1.02;;;25.40;48.80;;;;;;5095851;27;20058;-89
2022/07/01 15:36:30;;;;;;;2.05;1.20;;;25.40;48.90;;;;;;5121951;27;20066;-87
2022/07/01 15:38:57;;;;;;;3.60;1.38;;;25.40;48.90;;;;;;5093726;28;20039;-87
2022/07/01 15:41:24;;;;;;;1.90;1.38;;;25.40;49.00;;;;;;5092986;28;20031;-87
2022/07/01 15:43:50;;;;;;;2.42;1.20;;;25.40;49.10;;;;;;5109567;28;20036;-89
2022/07/01 15:46:16;;;;;;;2.22;1.35;;;25.40;49.20;;;;;;5088958;28;20015;-87
2022/07/01 15:48:41;;;;;;;1.52;1.20;;;25.40;49.20;;;;;;5078342;28;20035;-86
2022/07/01 15:51:07;;;;;;;1.42;1.10;;;25.40;49.30;;;;;;5086240;28;22746;-87
2022/07/01 15:53:33;;;;;;;1.85;1.20;;;25.40;49.40;;;;;;5071840;28;20048;-84
2022/07/01 15:56:00;;;;;;;1.92;1.10;;;25.40;49.40;;;;;;5085563;28;20084;-84
2022/07/01 15:58:27;;;;;;;1.48;1.20;;;25.40;49.40;;;;;;5088147;28;20040;-84
2022/07/01 16:00:53;;;;;;;2.92;1.58;;;25.40;49.50;;;;;;5106914;28;20032;-84
2022/07/01 16:03:19;;;;;;;2.78;1.33;;;25.40;49.50;;;;;;5094485;28;20048;-85
2022/07/01 16:05:47;;;;;;;1.80;1.30;;;25.40;49.60;;;;;;5058504;28;20024;-85
2022/07/01 16:08:19;;;;;;;1.45;1.08;;;25.40;49.60;;;;;;5089454;28;20041;-85
2022/07/01 16:10:48;;;;;;;2.42;1.35;;;25.40;49.70;;;;;;5084250;28;20059;-84
2022/07/01 16:13:18;;;;;;;1.52;1.30;;;25.40;49.70;;;;;;5091510;28;20043;-84
2022/07/01 16:15:50;;;;;;;2.58;1.38;;;25.40;49.80;;;;;;5098062;28;20035;-84
2022/07/01 16:18:20;;;;;;;2.38;1.50;;;25.40;49.90;;;;;;5074171;28;20042;-84
2022/07/01 16:20:48;;;;;;;2.30;1.30;;;25.40;49.80;;;;;;5104014;28;20066;-86
2022/07/01 16:23:26;;;;;;;2.58;1.40;;;25.40;49.90;;;;;;5106900;28;20066;-86
2022/07/01 16:25:56;;;;;;;1.55;1.17;;;25.40;50.00;;;;;;5084017;28;20028;-84
2022/07/01 16:28:23;;;;;;;1.45;1.05;;;25.40;50.00;;;;;;5105020;28;20039;-87
2022/07/01 16:30:50;;;;;;;2.08;1.15;;;25.40;50.00;;;;;;5088718;28;20059;-82
2022/07/01 16:33:18;;;;;;;2.08;1.20;;;25.40;50.00;;;;;;5091475;28;20048;-92
2022/07/01 16:35:53;;;;;;;1.58;1.00;;;25.40;50.00;;;;;;5087881;28;20123;-87
2022/07/01 16:38:28;;;;;;;1.58;1.00;;;25.40;50.00;;;;;;5073540;28;20050;-86
2022/07/01 16:41:28;;;;;;;1.38;0.80;;;25.40;50.00;;;;;;5080819;28;20020;-85
2022/07/01 16:44:24;;;;;;;1.77;0.93;;;25.40;50.00;;;;;;5103560;28;20039;-82
2022/07/01 16:46:56;;;;;;;1.42;1.10;;;25.40;50.10;;;;;;5082001;28;20032;-86
2022/07/01 16:49:29;;;;;;;4.13;1.10;;;25.30;49.90;;;;;;5075027;28;20111;-83
2022/07/01 16:52:06;;;;;;;2.00;1.00;;;25.30;49.90;;;;;;5103256;28;20040;-88
2022/07/01 16:54:32;;;;;;;1.50;1.02;;;25.30;49.90;;;;;;5112379;28;20095;-86
2022/07/01 16:57:07;;;;;;;1.42;0.95;;;25.30;50.00;;;;;;5083562;28;20020;-84
2022/07/01 16:59:34;;;;;;;1.38;0.90;;;25.30;50.00;;;;;;5105403;28;20024;-83
2022/07/01 17:02:04;;;;;;;1.15;0.73;;;25.30;50.00;;;;;;5111735;28;20035;-86
2022/07/01 17:04:33;;;;;;;0.80;0.80;;;25.30;50.00;;;;;;5111399;28;20047;-84
2022/07/01 17:07:03;;;;;;;1.80;0.90;;;25.30;50.10;;;;;;5092544;28;20055;-84
2022/07/01 17:09:30;;;;;;;1.23;0.88;;;25.30;50.10;;;;;;5102287;28;20127;-84
2022/07/01 17:12:00;;;;;;;1.55;0.80;;;25.30;50.10;;;;;;5092521;28;20028;-85
2022/07/01 17:14:29;;;;;;;1.40;0.88;;;25.30;50.10;;;;;;5084602;28;20051;-78
2022/07/01 17:16:55;;;;;;;0.95;0.68;;;25.30;50.10;;;;;;5087365;28;20016;-86
2022/07/01 17:19:21;;;;;;;1.40;0.68;;;25.30;50.00;;;;;;5064338;28;20044;-88
2022/07/01 17:21:52;;;;;;;1.10;0.70;;;25.30;50.00;;;;;;5085569;28;20032;-87
2022/07/01 17:24:19;;;;;;;1.08;0.80;;;25.30;50.00;;;;;;5101258;28;20036;-87
2022/07/01 17:27:10;;;;;;;0.85;0.80;;;25.30;50.00;;;;;;5087290;28;20114;-88